Time;durP1;ratioP1;P1;durP2;ratioP2;P2;SDS_P1;SDS_P2;PMS_P1;PMS_P2;Temp;Humidity;BMP_temperature;BMP_pressure;BME280_temperature;BME280_humidity;BME280_pressure;Samples;Min_cycle;Max_cycle;Signal;HPM_P1;HPM_P2
2021/12/06 00:00:09;;;;;;;;;;;;;;;20.38;37.75;100099.84;98416;1401;61346;-81
2021/12/06 00:03:35;;;;;;;;;;;;;;;20.38;37.76;100100.54;97928;1406;62394;-81
2021/12/06 00:06:42;;;;;;;;;;;;;;;20.38;37.78;100101.42;98028;1398;71944;-82
2021/12/06 00:09:47;;;;;;;;;;;;;;;20.38;37.74;100103.63;97857;1401;75215;-81
2021/12/06 00:12:33;;;;;;;;;;;;;;;20.38;37.73;100098.27;98038;1402;62226;-82
2021/12/06 00:15:49;;;;;;;;;;;;;;;;;;;;;
2021/12/06 00:19:06;;;;;;;;;;;;;;;;;;;;;
2021/12/06 00:22:22;;;;;;;;;;;;;;;;;;;;;
2021/12/06 00:26:13;;;;;;;;;;;;;;;20.37;37.76;100071.84;98420;1395;61278;-82
2021/12/06 00:29:38;;;;;;;;;;;;;;;20.38;37.73;100070.58;98573;1392;61316;-81
2021/12/06 00:32:49;;;;;;;;;;;;;;;20.38;37.70;100065.55;98808;1394;74278;-81
2021/12/06 00:35:49;;;;;;;;;;;;;;;;;;;;;
2021/12/06 00:39:11;;;;;;;;;;;;;;;20.37;37.73;100063.97;98302;1398;61400;-81
2021/12/06 00:42:10;;;;;;;;;;;;;;;;;;;;;
2021/12/06 00:45:12;;;;;;;;;;;;;;;20.38;37.79;100069.29;98539;1395;74274;-81
2021/12/06 00:52:13;;;;;;;;;;;;;;;20.38;37.68;100082.71;98722;1389;61396;-81
2021/12/06 00:54:46;;;;;;;;;;;;;;;20.37;37.64;100101.86;99228;1380;61514;-81
2021/12/06 00:58:01;;;;;;;;;;;;;;;20.38;37.64;100100.41;99143;1390;71639;-81
2021/12/06 01:05:09;;;;;;;;;;;;;;;20.38;37.59;100097.55;99469;1378;61441;-81
2021/12/06 01:11:50;;;;;;;;;;;;;;;20.38;37.61;100110.41;99402;1385;71663;-80
2021/12/06 01:18:43;;;;;;;;;;;;;;;20.38;37.67;100111.13;99019;1390;61909;-82
2021/12/06 01:22:15;;;;;;;;;;;;;;;20.38;37.67;100095.02;98195;1399;61260;-81
2021/12/06 01:24:48;;;;;;;;;;;;;;;20.38;37.69;100080.20;98246;1402;72788;-81
2021/12/06 01:45:24;;;;;;;;;;;;;;;20.38;37.62;100059.13;98036;1403;60099;-81
2021/12/06 01:48:30;;;;;;;;;;;;;;;20.38;37.69;100055.91;97617;1406;62776;-81
2021/12/06 01:51:28;;;;;;;;;;;;;;;20.37;37.64;100050.76;97357;1406;72656;-81
2021/12/06 01:54:34;;;;;;;;;;;;;;;20.37;37.64;100042.38;97717;1405;73577;-82
2021/12/06 02:00:53;;;;;;;;;;;;;;;;;;;;;
2021/12/06 02:04:08;;;;;;;;;;;;;;;20.37;37.64;100055.95;98326;1397;74649;-81
2021/12/06 02:06:54;;;;;;;;;;;;;;;20.37;37.67;100052.56;97873;1399;74861;-81
2021/12/06 02:10:28;;;;;;;;;;;;;;;20.37;37.62;100056.34;97883;1402;61325;-82
2021/12/06 02:13:57;;;;;;;;;;;;;;;20.37;37.61;100073.64;97702;1402;61406;-81
2021/12/06 02:17:03;;;;;;;;;;;;;;;;;;;;;
2021/12/06 02:19:56;;;;;;;;;;;;;;;20.38;37.61;100079.70;97630;1408;76508;-80
2021/12/06 02:23:31;;;;;;;;;;;;;;;20.37;37.63;100074.71;97477;1405;61451;-81
2021/12/06 02:26:47;;;;;;;;;;;;;;;;;;;;;
2021/12/06 02:30:04;;;;;;;;;;;;;;;;;;;;;
2021/12/06 02:33:22;;;;;;;;;;;;;;;;;;;;;
2021/12/06 02:36:47;;;;;;;;;;;;;;;;;;;;;
2021/12/06 02:40:20;;;;;;;;;;;;;;;20.37;37.63;100049.69;96882;1413;61321;-81
2021/12/06 02:43:22;;;;;;;;;;;;;;;20.37;37.54;100036.09;96884;1410;71713;-81
2021/12/06 02:46:10;;;;;;;;;;;;;;;20.37;37.63;100034.52;96898;1411;75863;-83
2021/12/06 02:49:07;;;;;;;;;;;;;;;;;;;;;
2021/12/06 02:52:21;;;;;;;;;;;;;;;20.37;37.65;100029.01;96385;1423;61485;-81
2021/12/06 02:55:34;;;;;;;;;;;;;;;20.37;37.50;100031.45;96320;1426;71741;-82
2021/12/06 03:02:10;;;;;;;;;;;;;;;20.36;37.50;100021.35;96373;1425;61524;-81
2021/12/06 03:05:03;;;;;;;;;;;;;;;20.36;37.54;100014.58;96412;1422;61788;-82
2021/12/06 03:08:02;;;;;;;;;;;;;;;;;;;;;
2021/12/06 03:11:18;;;;;;;;;;;;;;;20.36;37.69;100016.02;96948;1411;76281;-82
2021/12/06 03:14:06;;;;;;;;;;;;;;;20.36;37.52;100012.26;97209;1410;61321;-82
2021/12/06 03:17:15;;;;;;;;;;;;;;;20.36;37.56;100024.44;97243;1410;59423;-81
2021/12/06 03:20:21;;;;;;;;;;;;;;;20.35;37.72;100025.37;97676;1402;71714;-82
2021/12/06 03:23:15;;;;;;;;;;;;;;;;;;;;;
2021/12/06 03:26:26;;;;;;;;;;;;;;;20.35;37.61;100030.21;98207;1398;61279;-81
2021/12/06 03:29:42;;;;;;;;;;;;;;;;;;;;;
2021/12/06 03:36:03;;;;;;;;;;;;;;;20.36;37.59;100002.29;98948;1393;74086;-82
2021/12/06 03:39:40;;;;;;;;;;;;;;;;;;;;;
2021/12/06 03:42:38;;;;;;;;;;;;;;;20.36;37.59;100000.66;98573;1400;61293;-81
2021/12/06 03:45:41;;;;;;;;;;;;;;;;;;;;;
2021/12/06 03:48:36;;;;;;;;;;;;;;;20.35;37.53;100014.29;98340;1399;76223;-81
2021/12/06 03:51:45;;;;;;;;;;;;;;;20.36;37.58;100012.82;98561;1396;61366;-82
2021/12/06 03:55:15;;;;;;;;;;;;;;;20.35;37.64;100008.05;98640;1398;61782;-81
2021/12/06 03:58:28;;;;;;;;;;;;;;;;;;;;;
2021/12/06 04:02:08;;;;;;;;;;;;;;;20.35;37.55;100020.73;98157;1401;74999;-81
2021/12/06 04:05:02;;;;;;;;;;;;;;;;;;;;;
2021/12/06 04:08:26;;;;;;;;;;;;;;;20.35;37.60;100012.69;97894;1399;61939;-81
2021/12/06 04:11:44;;;;;;;;;;;;;;;20.36;37.64;100019.07;97435;1406;74656;-80
2021/12/06 04:15:21;;;;;;;;;;;;;;;;;;;;;
2021/12/06 04:18:09;;;;;;;;;;;;;;;;;;;;;
2021/12/06 04:21:05;;;;;;;;;;;;;;;;;;;;;
2021/12/06 04:28:00;;;;;;;;;;;;;;;20.29;37.78;100031.77;98359;1403;76506;-82
2021/12/06 04:31:15;;;;;;;;;;;;;;;;;;;;;
2021/12/06 04:34:31;;;;;;;;;;;;;;;20.20;38.09;100035.54;98198;1405;61427;-82
2021/12/06 04:50:41;;;;;;;;;;;;;;;;;;;;;
2021/12/06 04:53:50;;;;;;;;;;;;;;;19.95;38.54;100037.84;97054;1412;75607;-81
2021/12/06 04:56:59;;;;;;;;;;;;;;;19.90;38.51;100041.94;97206;1413;61382;-81
2021/12/06 05:00:57;;;;;;;;;;;;;;;19.85;38.47;100041.61;96850;1418;61457;-81
2021/12/06 05:06:45;;;;;;;;;;;;;;;19.73;38.54;100027.94;96838;1416;74072;-81
2021/12/06 05:10:12;;;;;;;;;;;;;;;19.64;38.39;100026.98;96833;1418;62191;-81
2021/12/06 05:13:16;;;;;;;;;;;;;;;;;;;;;
2021/12/06 05:16:33;;;;;;;;;;;;;;;;;;;;;
2021/12/06 05:19:49;;;;;;;;;;;;;;;;;;;;;
2021/12/06 05:23:06;;;;;;;;;;;;;;;;;;;;;
2021/12/06 05:26:12;;;;;;;;;;;;;;;19.48;38.20;100015.02;96938;1415;61445;-79
2021/12/06 05:29:12;;;;;;;;;;;;;;;;;;;;;
2021/12/06 05:32:07;;;;;;;;;;;;;;;19.47;37.92;100011.34;97619;1405;73682;-81
2021/12/06 05:35:34;;;;;;;;;;;;;;;19.46;37.79;100011.60;98245;1398;61251;-80
2021/12/06 05:38:18;;;;;;;;;;;;;;;;;;;;;
2021/12/06 05:41:25;;;;;;;;;;;;;;;19.45;37.65;100008.63;98572;1396;71544;-80
2021/12/06 05:44:11;;;;;;;;;;;;;;;19.46;37.70;100001.06;98563;1395;75643;-80
2021/12/06 05:47:27;;;;;;;;;;;;;;;;;;;;;
2021/12/06 05:50:43;;;;;;;;;;;;;;;19.47;37.77;100004.05;98597;1390;61343;-80
2021/12/06 05:53:13;;;;;;;;;;;;;;;19.46;37.68;100018.33;98920;1392;73962;-78
2021/12/06 05:55:51;;;;;;;;;;;;;;;;;;;;;
2021/12/06 05:58:17;;;;;;;;;;;;;;;19.44;37.60;100034.56;99123;1387;60409;-80
2021/12/06 06:00:49;;;;;;;;;;;;;;;19.41;37.56;100032.44;98647;1389;61402;-79
2021/12/06 06:03:18;;;;;;;;;;;;;;;19.39;37.48;100030.52;98834;1383;73816;-79
2021/12/06 06:05:56;;;;;;;;;;;;;;;19.38;37.46;100044.67;99237;1386;75212;-80
2021/12/06 06:08:21;;;;;;;;;;;;;;;19.37;37.43;100052.77;99528;1386;60224;-79
2021/12/06 06:10:58;;;;;;;;;;;;;;;19.37;37.42;100052.44;99867;1380;60531;-79
2021/12/06 06:13:24;;;;;;;;;;;;;;;19.37;37.41;100050.11;99880;1385;59554;-79
2021/12/06 06:15:55;;;;;;;;;;;;;;;19.36;37.27;100047.64;99488;1379;60097;-79
2021/12/06 06:18:29;;;;;;;;;;;;;;;19.37;37.22;100043.89;99284;1376;61316;-78
2021/12/06 06:20:58;;;;;;;;;;;;;;;19.37;36.98;100036.92;99798;1371;61543;-79
2021/12/06 06:23:58;;;;;;;;;;;;;;;;;;;;;
2021/12/06 06:26:27;;;;;;;;;;;;;;;19.36;36.62;100032.16;100240;1369;74932;-79
2021/12/06 06:28:53;;;;;;;;;;;;;;;19.36;36.63;100025.04;100340;1362;61337;-79
2021/12/06 06:31:55;;;;;;;;;;;;;;;19.35;36.60;100034.05;100081;1365;61250;-78
2021/12/06 06:34:30;;;;;;;;;;;;;;;19.33;36.55;100038.42;100087;1365;73689;-79
2021/12/06 06:37:32;;;;;;;;;;;;;;;;;;;;;
2021/12/06 06:40:05;;;;;;;;;;;;;;;19.31;36.45;100038.41;99757;1373;61319;-79
2021/12/06 06:42:43;;;;;;;;;;;;;;;;;;;;;
2021/12/06 06:46:11;;;;;;;;;;;;;;;19.27;36.36;100031.61;99823;1368;72966;-79
2021/12/06 06:48:38;;;;;;;;;;;;;;;19.24;36.35;100031.25;99675;1373;76939;-79
2021/12/06 06:51:24;;;;;;;;;;;;;;;19.22;36.29;100033.73;99664;1369;61471;-78
2021/12/06 06:53:52;;;;;;;;;;;;;;;19.23;36.13;100042.98;99717;1372;61407;-79
2021/12/06 06:56:29;;;;;;;;;;;;;;;19.20;36.13;100043.51;99645;1371;73520;-79
2021/12/06 06:58:57;;;;;;;;;;;;;;;19.20;36.10;100041.04;99740;1370;74716;-78
2021/12/06 07:01:26;;;;;;;;;;;;;;;19.17;36.01;100036.27;99758;1369;60118;-78
2021/12/06 07:03:57;;;;;;;;;;;;;;;19.18;36.23;100041.55;99605;1375;63424;-78
2021/12/06 07:06:45;;;;;;;;;;;;;;;19.24;36.29;100053.58;99411;1371;270406;-79
2021/12/06 07:09:11;;;;;;;;;;;;;;;19.31;36.36;100060.94;99620;1372;76132;-78
2021/12/06 07:11:41;;;;;;;;;;;;;;;19.39;36.38;100056.20;99933;1368;60024;-79
2021/12/06 07:14:06;;;;;;;;;;;;;;;19.47;36.47;100055.40;100914;1368;60870;-80
2021/12/06 07:16:32;;;;;;;;;;;;;;;19.56;36.49;100055.45;101377;1363;59524;-78
2021/12/06 07:18:58;;;;;;;;;;;;;;;19.64;36.53;100051.98;101380;1366;59743;-78
2021/12/06 07:21:23;;;;;;;;;;;;;;;19.71;36.51;100043.92;101336;1363;59926;-79
2021/12/06 07:23:49;;;;;;;;;;;;;;;19.78;36.57;100047.54;101450;1363;59553;-79
2021/12/06 07:26:15;;;;;;;;;;;;;;;19.85;36.64;100051.63;101382;1363;60496;-80
2021/12/06 07:28:41;;;;;;;;;;;;;;;19.91;36.59;100051.32;101290;1362;59851;-79
2021/12/06 07:31:07;;;;;;;;;;;;;;;19.94;36.58;100055.27;101176;1365;59835;-78
2021/12/06 07:33:33;;;;;;;;;;;;;;;19.98;36.62;100064.23;101282;1362;59273;-79
2021/12/06 07:35:58;;;;;;;;;;;;;;;20.02;36.64;100069.60;101325;1362;59275;-79
2021/12/06 07:38:26;;;;;;;;;;;;;;;20.05;36.53;100071.84;100814;1362;59574;-79
2021/12/06 07:40:51;;;;;;;;;;;;;;;20.07;36.60;100073.50;100243;1365;61398;-79
2021/12/06 07:43:17;;;;;;;;;;;;;;;20.09;36.50;100076.73;100507;1362;61320;-78
2021/12/06 07:45:43;;;;;;;;;;;;;;;20.10;36.58;100081.09;100432;1362;61403;-79
2021/12/06 07:48:12;;;;;;;;;;;;;;;20.13;36.61;100084.17;100391;1362;59833;-79
2021/12/06 07:50:47;;;;;;;;;;;;;;;20.15;36.63;100084.00;100627;1365;59489;-79
2021/12/06 07:53:12;;;;;;;;;;;;;;;20.17;36.57;100090.07;100119;1362;61603;-79
2021/12/06 07:55:39;;;;;;;;;;;;;;;20.18;36.50;100078.58;100535;1365;61361;-79
2021/12/06 07:58:17;;;;;;;;;;;;;;;20.07;36.41;100070.64;100321;1361;61363;-79
2021/12/06 08:00:44;;;;;;;;;;;;;;;19.94;36.54;100075.42;100366;1362;74330;-79
2021/12/06 08:03:21;;;;;;;;;;;;;;;19.86;36.57;100080.52;101455;1366;60203;-79
2021/12/06 08:05:47;;;;;;;;;;;;;;;19.84;36.77;100079.21;101018;1365;61530;-79
2021/12/06 08:08:14;;;;;;;;;;;;;;;19.86;36.77;100077.48;100996;1361;59372;-79
2021/12/06 08:10:43;;;;;;;;;;;;;;;19.91;36.77;100098.34;100487;1370;59717;-79
2021/12/06 08:13:09;;;;;;;;;;;;;;;19.97;36.79;100092.72;101855;1358;60084;-79
2021/12/06 08:15:34;;;;;;;;;;;;;;;20.02;36.85;100095.85;101747;1357;59518;-79
2021/12/06 08:18:00;;;;;;;;;;;;;;;20.08;36.99;100097.93;101846;1356;59544;-79
2021/12/06 08:20:25;;;;;;;;;;;;;;;20.12;36.92;100093.64;101800;1358;59397;-79
2021/12/06 08:22:50;;;;;;;;;;;;;;;20.18;36.92;100079.47;101877;1360;59596;-79
2021/12/06 08:25:16;;;;;;;;;;;;;;;20.22;36.99;100075.19;101901;1357;59329;-79
2021/12/06 08:27:42;;;;;;;;;;;;;;;20.27;37.11;100078.02;102441;1351;59219;-79
2021/12/06 08:30:07;;;;;;;;;;;;;;;20.32;37.19;100075.64;102338;1353;59361;-79
2021/12/06 08:32:34;;;;;;;;;;;;;;;20.36;37.28;100070.50;102421;1351;59274;-79
2021/12/06 08:35:00;;;;;;;;;;;;;;;20.40;37.30;100065.73;102383;1354;59649;-79
2021/12/06 08:37:26;;;;;;;;;;;;;;;20.45;37.41;100060.73;102600;1350;59232;-79
2021/12/06 08:39:52;;;;;;;;;;;;;;;20.48;37.48;100051.17;102526;1347;59750;-79
2021/12/06 08:42:17;;;;;;;;;;;;;;;20.51;37.63;100058.08;102404;1352;59944;-79
2021/12/06 08:44:43;;;;;;;;;;;;;;;20.54;37.55;100064.98;102240;1348;75127;-79
2021/12/06 08:47:16;;;;;;;;;;;;;;;20.57;37.70;100068.50;101264;1350;61437;-79
2021/12/06 08:49:53;;;;;;;;;;;;;;;20.59;37.74;100052.08;101269;1349;61333;-79
2021/12/06 08:52:19;;;;;;;;;;;;;;;20.61;37.70;100045.09;101404;1349;72820;-79
2021/12/06 08:54:45;;;;;;;;;;;;;;;20.63;37.88;100031.90;101262;1347;60077;-79
2021/12/06 08:57:10;;;;;;;;;;;;;;;20.59;37.86;100034.39;101172;1355;60618;-79
2021/12/06 08:59:38;;;;;;;;;;;;;;;20.48;37.77;100040.11;102309;1346;59569;-80
2021/12/06 09:02:04;;;;;;;;;;;;;;;20.41;37.98;100035.83;102580;1350;59329;-79
2021/12/06 09:04:33;;;;;;;;;;;;;;;20.34;37.84;100030.86;102478;1349;59837;-79
2021/12/06 09:06:59;;;;;;;;;;;;;;;20.27;37.85;100028.74;102270;1354;60370;-79
2021/12/06 09:09:27;;;;;;;;;;;;;;;20.23;37.71;100038.64;102511;1349;59439;-79
2021/12/06 09:11:53;;;;;;;;;;;;;;;20.24;37.62;100034.13;102421;1350;72987;-79
2021/12/06 09:14:23;;;;;;;;;;;;;;;20.26;37.56;100029.48;101655;1348;61415;-78
2021/12/06 09:16:48;;;;;;;;;;;;;;;20.29;37.57;100027.84;101285;1352;60694;-79
2021/12/06 09:19:27;;;;;;;;;;;;;;;20.31;37.46;100029.96;101305;1353;61477;-78
2021/12/06 09:22:03;;;;;;;;;;;;;;;20.35;37.33;100032.91;101299;1351;73741;-78
2021/12/06 09:24:50;;;;;;;;;;;;;;;20.37;37.42;100025.59;101503;1346;75852;-78
2021/12/06 09:27:35;;;;;;;;;;;;;;;20.39;37.44;100021.52;101479;1348;61587;-78
2021/12/06 09:30:01;;;;;;;;;;;;;;;20.42;37.42;100021.98;101456;1348;61486;-78
2021/12/06 09:32:27;;;;;;;;;;;;;;;20.44;37.61;100022.52;101419;1350;59616;-78
2021/12/06 09:34:57;;;;;;;;;;;;;;;20.46;37.61;100022.54;101447;1346;61419;-78
2021/12/06 09:37:23;;;;;;;;;;;;;;;20.48;37.48;100017.73;102514;1349;59580;-79
2021/12/06 09:39:48;;;;;;;;;;;;;;;20.50;37.62;100017.58;102415;1350;59785;-79
2021/12/06 09:42:14;;;;;;;;;;;;;;;20.52;37.67;100012.92;102517;1350;59830;-78
2021/12/06 09:44:39;;;;;;;;;;;;;;;20.54;37.85;100016.36;102642;1352;59653;-79
2021/12/06 09:47:05;;;;;;;;;;;;;;;20.57;37.73;100019.01;102530;1351;59283;-79
2021/12/06 09:49:40;;;;;;;;;;;;;;;;;;;;;
2021/12/06 09:52:16;;;;;;;;;;;;;;;20.59;37.74;100015.89;101801;1348;61376;-82
2021/12/06 09:55:10;;;;;;;;;;;;;;;20.48;37.48;100015.63;101618;1347;72987;-81
2021/12/06 09:57:36;;;;;;;;;;;;;;;20.36;37.49;100016.02;101664;1350;75949;-81
2021/12/06 10:00:03;;;;;;;;;;;;;;;20.19;37.35;100012.73;101721;1348;60617;-80
2021/12/06 10:02:29;;;;;;;;;;;;;;;19.90;37.16;100010.38;102402;1349;59649;-81
2021/12/06 10:04:55;;;;;;;;;;;;;;;19.78;37.39;100009.48;102689;1349;59246;-81
2021/12/06 10:07:21;;;;;;;;;;;;;;;19.73;37.40;100005.91;102287;1347;59286;-81
2021/12/06 10:09:48;;;;;;;;;;;;;;;19.70;37.41;100004.95;102338;1350;60667;-81
2021/12/06 10:12:15;;;;;;;;;;;;;;;19.67;37.45;100001.05;102591;1349;59303;-81
2021/12/06 10:14:43;;;;;;;;;;;;;;;19.66;37.42;100008.86;102489;1350;59159;-81
2021/12/06 10:17:08;;;;;;;;;;;;;;;19.64;37.49;99999.85;102565;1350;74709;-81
2021/12/06 10:19:34;;;;;;;;;;;;;;;19.63;37.44;100003.16;102564;1349;59362;-81
2021/12/06 10:22:01;;;;;;;;;;;;;;;19.63;37.45;100003.75;102576;1352;59251;-81
2021/12/06 10:24:27;;;;;;;;;;;;;;;19.60;37.37;100006.02;102601;1349;59447;-81
2021/12/06 10:27:09;;;;;;;;;;;;;;;19.60;37.27;100002.80;102585;1349;74813;-81
2021/12/06 10:29:38;;;;;;;;;;;;;;;19.60;37.29;99997.83;102698;1348;60623;-81
2021/12/06 10:32:10;;;;;;;;;;;;;;;19.59;37.18;99999.14;101688;1350;61776;-80
2021/12/06 10:34:45;;;;;;;;;;;;;;;19.58;37.12;99994.45;102683;1349;72861;-81
2021/12/06 10:37:32;;;;;;;;;;;;;;;19.55;37.13;99979.28;102070;1349;74747;-81
2021/12/06 10:39:58;;;;;;;;;;;;;;;19.51;36.94;99983.36;101546;1349;61071;-79
2021/12/06 10:42:36;;;;;;;;;;;;;;;19.47;36.86;99980.82;101795;1347;59852;-79
2021/12/06 10:45:22;;;;;;;;;;;;;;;19.45;36.94;99976.88;101384;1351;73829;-79
2021/12/06 10:48:26;;;;;;;;;;;;;;;19.41;36.83;99970.91;101193;1347;73860;-78
2021/12/06 10:51:10;;;;;;;;;;;;;;;19.38;36.85;99971.53;100968;1354;61345;-79
2021/12/06 10:53:48;;;;;;;;;;;;;;;19.39;36.73;99963.05;100960;1352;60266;-78
2021/12/06 10:56:20;;;;;;;;;;;;;;;19.35;36.86;99964.45;101865;1355;73291;-79
2021/12/06 10:58:48;;;;;;;;;;;;;;;19.30;36.71;99966.81;102045;1356;76223;-80
2021/12/06 11:01:14;;;;;;;;;;;;;;;19.25;36.90;99961.04;101971;1353;61849;-79
2021/12/06 11:03:45;;;;;;;;;;;;;;;19.25;36.98;99958.05;101877;1356;59729;-79
2021/12/06 11:06:13;;;;;;;;;;;;;;;19.25;37.09;99962.27;101889;1352;73884;-79
2021/12/06 11:08:39;;;;;;;;;;;;;;;19.27;37.18;99965.04;101810;1356;76316;-79
2021/12/06 11:11:06;;;;;;;;;;;;;;;19.29;37.26;99958.88;101073;1365;59674;-80
2021/12/06 11:14:03;;;;;;;;;;;;;;;19.30;37.27;99956.06;101019;1354;61363;-79
2021/12/06 11:16:47;;;;;;;;;;;;;;;19.32;37.20;99956.65;101789;1357;73524;-80
2021/12/06 11:19:16;;;;;;;;;;;;;;;19.33;37.22;99951.38;101614;1357;75625;-79
2021/12/06 11:21:44;;;;;;;;;;;;;;;19.34;37.22;99948.66;101718;1357;60592;-79
2021/12/06 11:24:21;;;;;;;;;;;;;;;19.34;37.09;99949.90;100920;1360;61488;-78
2021/12/06 11:27:20;;;;;;;;;;;;;;;19.37;37.18;99946.59;100863;1354;73724;-79
2021/12/06 11:30:04;;;;;;;;;;;;;;;19.41;37.14;99949.86;100966;1351;75063;-79
2021/12/06 11:32:40;;;;;;;;;;;;;;;19.41;37.13;99942.20;102063;1356;59711;-79
2021/12/06 11:35:33;;;;;;;;;;;;;;;19.41;37.08;99943.64;102018;1357;60895;-79
2021/12/06 11:38:03;;;;;;;;;;;;;;;19.43;37.10;99938.66;101790;1359;74131;-79
2021/12/06 11:40:28;;;;;;;;;;;;;;;19.48;37.13;99931.14;101605;1358;76166;-79
2021/12/06 11:43:03;;;;;;;;;;;;;;;19.55;37.14;99930.96;101836;1358;59166;-79
2021/12/06 11:45:31;;;;;;;;;;;;;;;19.59;37.14;99930.98;101737;1361;60322;-79
2021/12/06 11:48:07;;;;;;;;;;;;;;;19.59;37.05;99928.42;101861;1359;73799;-79
2021/12/06 11:50:33;;;;;;;;;;;;;;;19.59;37.04;99940.95;101480;1356;74818;-79
2021/12/06 11:53:05;;;;;;;;;;;;;;;19.61;37.07;99944.23;101697;1357;59111;-79
2021/12/06 11:55:30;;;;;;;;;;;;;;;19.56;37.02;99937.64;101980;1351;60304;-79
2021/12/06 11:57:55;;;;;;;;;;;;;;;19.52;36.97;99933.66;102154;1360;59622;-79
2021/12/06 12:00:22;;;;;;;;;;;;;;;19.48;37.09;99934.49;101823;1354;60814;-79
2021/12/06 12:02:48;;;;;;;;;;;;;;;19.45;37.02;99940.11;101909;1356;59365;-79
2021/12/06 12:05:25;;;;;;;;;;;;;;;19.42;37.04;99941.78;101962;1352;59711;-79
2021/12/06 12:08:11;;;;;;;;;;;;;;;19.38;37.06;99936.89;101895;1353;72812;-80
2021/12/06 12:10:46;;;;;;;;;;;;;;;19.28;36.86;99937.69;102163;1353;74807;-79
2021/12/06 12:13:13;;;;;;;;;;;;;;;19.19;36.92;99937.30;102197;1353;60048;-79
2021/12/06 12:15:40;;;;;;;;;;;;;;;19.17;36.98;99930.98;102330;1355;61772;-80
2021/12/06 12:18:05;;;;;;;;;;;;;;;19.13;37.01;99930.44;102648;1350;72621;-79
2021/12/06 12:20:31;;;;;;;;;;;;;;;19.10;37.01;99925.66;102463;1348;59297;-80
2021/12/06 12:23:00;;;;;;;;;;;;;;;19.10;37.12;99919.27;102723;1350;59431;-79
2021/12/06 12:25:44;;;;;;;;;;;;;;;;;;;;;
2021/12/06 12:30:35;;;;;;;;;;;;;;;19.13;37.04;99914.21;102365;1350;59774;-80
2021/12/06 12:33:01;;;;;;;;;;;;;;;19.14;36.93;99911.84;102592;1347;59246;-80
2021/12/06 12:35:29;;;;;;;;;;;;;;;19.16;36.98;99914.89;102699;1348;59341;-80
2021/12/06 12:37:54;;;;;;;;;;;;;;;19.16;36.90;99917.16;102655;1349;59642;-79
2021/12/06 12:40:21;;;;;;;;;;;;;;;19.17;36.97;99916.39;102549;1354;59447;-80
2021/12/06 12:42:54;;;;;;;;;;;;;;;19.18;36.87;99914.15;101619;1359;59504;-79
2021/12/06 12:45:19;;;;;;;;;;;;;;;19.19;36.90;99908.39;102504;1349;61380;-79
2021/12/06 12:47:45;;;;;;;;;;;;;;;19.18;36.87;99908.83;102723;1343;59195;-80
2021/12/06 12:50:12;;;;;;;;;;;;;;;19.17;37.01;99911.42;102553;1346;59408;-80
2021/12/06 12:52:46;;;;;;;;;;;;;;;19.17;36.99;99908.77;102568;1350;60651;-80
2021/12/06 12:55:36;;;;;;;;;;;;;;;19.19;36.88;99906.45;102528;1349;60748;-80
2021/12/06 12:58:08;;;;;;;;;;;;;;;19.20;36.96;99906.00;102624;1350;74042;-80
2021/12/06 13:00:34;;;;;;;;;;;;;;;19.21;36.94;99913.45;102752;1351;75737;-80
2021/12/06 13:03:01;;;;;;;;;;;;;;;19.20;36.80;99919.21;102570;1351;59602;-80
2021/12/06 13:05:27;;;;;;;;;;;;;;;19.20;36.78;99918.34;102577;1348;60848;-80
2021/12/06 13:07:59;;;;;;;;;;;;;;;19.18;36.81;99915.97;102705;1351;59147;-80
2021/12/06 13:10:57;;;;;;;;;;;;;;;19.14;36.58;99911.98;102514;1355;75772;-80
2021/12/06 13:13:31;;;;;;;;;;;;;;;19.10;36.65;99920.30;102293;1357;60962;-80
2021/12/06 13:16:10;;;;;;;;;;;;;;;19.09;36.66;99917.85;102208;1355;61582;-80
2021/12/06 13:22:12;;;;;;;;;;;;;;;19.12;36.84;99908.59;101911;1359;74589;-79
2021/12/06 13:25:04;;;;;;;;;;;;;;;19.21;37.41;99909.80;100713;1369;61471;-79
2021/12/06 13:27:43;;;;;;;;;;;;;;;19.36;37.83;99906.89;100667;1360;61239;-78
2021/12/06 13:30:57;;;;;;;;;;;;;;;19.52;38.18;99906.20;100398;1363;71621;-79
2021/12/06 13:33:44;;;;;;;;;;;;;;;;;;;;;
2021/12/06 13:36:59;;;;;;;;;;;;;;;19.76;38.52;99906.48;100012;1372;62874;-78
2021/12/06 13:40:10;;;;;;;;;;;;;;;19.86;38.52;99911.03;99641;1375;61333;-81
2021/12/06 13:42:37;;;;;;;;;;;;;;;19.93;38.54;99909.73;99734;1375;72924;-81
2021/12/06 13:45:24;;;;;;;;;;;;;;;19.99;38.53;99908.24;99703;1375;74672;-78
2021/12/06 13:48:32;;;;;;;;;;;;;;;20.04;38.52;99921.59;99385;1378;61347;-78
2021/12/06 13:51:37;;;;;;;;;;;;;;;20.09;38.61;99925.11;99698;1374;60768;-80
2021/12/06 13:54:16;;;;;;;;;;;;;;;20.14;38.66;99918.45;99755;1378;74021;-80
2021/12/06 13:57:03;;;;;;;;;;;;;;;20.12;38.54;99923.80;99830;1374;74964;-80
2021/12/06 13:59:43;;;;;;;;;;;;;;;20.08;38.52;99928.38;99789;1379;61377;-81
2021/12/06 14:02:33;;;;;;;;;;;;;;;20.10;38.49;99926.64;99732;1377;61729;-80
2021/12/06 14:05:29;;;;;;;;;;;;;;;20.10;38.46;99929.69;100068;1371;73228;-80
2021/12/06 14:07:57;;;;;;;;;;;;;;;20.09;38.42;99935.98;100419;1369;74837;-80
2021/12/06 14:10:31;;;;;;;;;;;;;;;20.11;38.30;99931.19;100657;1368;61228;-80
2021/12/06 14:13:07;;;;;;;;;;;;;;;;;;;;;
2021/12/06 14:18:26;;;;;;;;;;;;;;;20.16;38.28;99938.42;101358;1356;76143;-79
2021/12/06 14:21:19;;;;;;;;;;;;;;;20.19;38.25;99937.52;101467;1354;60283;-79
2021/12/06 14:24:07;;;;;;;;;;;;;;;20.21;38.30;99938.78;101467;1353;61304;-78
2021/12/06 14:27:04;;;;;;;;;;;;;;;20.23;38.14;99934.30;101720;1354;72320;-79
2021/12/06 14:30:10;;;;;;;;;;;;;;;20.24;38.27;99935.98;101195;1356;73837;-80
2021/12/06 14:33:16;;;;;;;;;;;;;;;20.26;38.22;99931.77;101165;1362;61230;-80
2021/12/06 14:36:18;;;;;;;;;;;;;;;20.27;38.33;99941.69;101224;1356;61177;-79
2021/12/06 14:39:04;;;;;;;;;;;;;;;20.29;38.17;99950.88;101180;1359;72598;-79
2021/12/06 14:41:50;;;;;;;;;;;;;;;20.30;38.27;99955.24;101103;1356;73929;-79
2021/12/06 14:45:00;;;;;;;;;;;;;;;20.30;38.22;99957.69;101208;1357;61626;-80
2021/12/06 14:48:05;;;;;;;;;;;;;;;20.32;38.25;99961.48;101096;1356;61175;-79
2021/12/06 14:50:49;;;;;;;;;;;;;;;;;;;;;
2021/12/06 14:53:57;;;;;;;;;;;;;;;20.34;38.16;99967.44;100809;1359;74949;-80
2021/12/06 14:59:37;;;;;;;;;;;;;;;20.36;38.18;99979.71;100952;1360;61327;-79
2021/12/06 15:02:41;;;;;;;;;;;;;;;;;;;;;
2021/12/06 15:05:27;;;;;;;;;;;;;;;20.38;38.27;99967.95;101114;1364;75846;-79
2021/12/06 15:08:14;;;;;;;;;;;;;;;20.39;38.07;99964.13;100128;1367;829479;-79
2021/12/06 15:11:08;;;;;;;;;;;;;;;20.39;38.03;99954.08;100891;1363;61689;-79
2021/12/06 15:14:05;;;;;;;;;;;;;;;20.39;38.03;99944.41;100892;1360;73942;-79
2021/12/06 15:16:51;;;;;;;;;;;;;;;20.40;38.11;99937.60;100900;1366;74669;-79
2021/12/06 15:19:57;;;;;;;;;;;;;;;20.40;38.00;99940.09;100899;1367;61247;-79
2021/12/06 15:23:24;;;;;;;;;;;;;;;20.40;38.12;99934.71;100413;1366;62006;-81
2021/12/06 15:26:57;;;;;;;;;;;;;;;20.41;38.03;99940.39;100726;1366;74474;-81
2021/12/06 15:29:48;;;;;;;;;;;;;;;;;;;;;
2021/12/06 15:36:06;;;;;;;;;;;;;;;;;;;;;
2021/12/06 15:39:33;;;;;;;;;;;;;;;20.43;38.09;99934.48;99281;1388;71561;-81
2021/12/06 15:42:53;;;;;;;;;;;;;;;20.43;38.10;99938.02;99286;1388;74877;-81
2021/12/06 15:45:54;;;;;;;;;;;;;;;20.43;38.05;99936.83;99344;1385;61756;-81
2021/12/06 15:48:52;;;;;;;;;;;;;;;;;;;;;
2021/12/06 15:52:19;;;;;;;;;;;;;;;20.44;38.09;99943.48;99042;1382;71432;-81
2021/12/06 15:55:43;;;;;;;;;;;;;;;20.45;38.11;99945.59;99002;1388;75811;-78
2021/12/06 15:58:18;;;;;;;;;;;;;;;20.46;38.17;99944.79;99150;1388;61249;-79
2021/12/06 16:01:34;;;;;;;;;;;;;;;;;;;;;
2021/12/06 16:04:44;;;;;;;;;;;;;;;20.48;38.27;99952.84;98999;1390;73722;-80
2021/12/06 16:07:52;;;;;;;;;;;;;;;20.48;38.17;99953.89;98854;1390;74814;-80
2021/12/06 16:10:58;;;;;;;;;;;;;;;20.50;38.22;99954.67;99101;1388;61431;-80
2021/12/06 16:13:48;;;;;;;;;;;;;;;20.51;38.14;99965.69;99493;1374;61829;-80
2021/12/06 16:19:49;;;;;;;;;;;;;;;20.51;38.22;99971.88;100095;1371;75743;-81
2021/12/06 16:23:15;;;;;;;;;;;;;;;;;;;;;
2021/12/06 16:29:54;;;;;;;;;;;;;;;;;;;;;
2021/12/06 16:32:41;;;;;;;;;;;;;;;20.52;38.16;99961.27;99130;1383;75604;-81
2021/12/06 16:35:36;;;;;;;;;;;;;;;20.53;38.24;99959.80;99063;1386;61562;-82
2021/12/06 16:38:57;;;;;;;;;;;;;;;20.52;38.15;99968.38;98788;1393;61362;-81
2021/12/06 16:42:27;;;;;;;;;;;;;;;20.54;38.22;99956.69;99022;1389;73980;-80